createdAt,value
2023-05-24T00:00:12.070Z,100540.00
2023-05-24T00:02:41.471Z,100543.00
2023-05-24T00:05:10.197Z,100541.00
2023-05-24T00:07:38.029Z,100546.00
2023-05-24T00:10:06.046Z,100555.00
2023-05-24T00:12:33.881Z,100543.00
2023-05-24T00:15:01.213Z,100550.00
2023-05-24T00:17:29.588Z,100551.00
2023-05-24T00:19:56.926Z,100546.00
2023-05-24T00:22:24.426Z,100545.00
2023-05-24T00:24:51.761Z,100549.00
2023-05-24T00:27:19.098Z,100549.00
2023-05-24T00:29:46.897Z,100552.00
2023-05-24T00:32:14.261Z,100555.00
2023-05-24T00:34:42.326Z,100551.00
2023-05-24T00:37:09.679Z,100547.00
2023-05-24T00:39:36.995Z,100555.00
2023-05-24T00:42:04.719Z,100554.00
2023-05-24T00:44:32.280Z,100549.00
2023-05-24T00:47:01.027Z,100547.00
2023-05-24T00:49:28.714Z,100560.00
2023-05-24T00:51:56.817Z,100558.00
2023-05-24T00:54:25.627Z,100557.00
2023-05-24T00:56:53.417Z,100562.00
2023-05-24T00:59:20.797Z,100555.00
2023-05-24T01:01:48.181Z,100562.00
2023-05-24T01:04:16.939Z,100555.00
2023-05-24T01:07:02.503Z,100563.00
2023-05-24T01:09:41.042Z,100565.00
2023-05-24T01:12:19.893Z,100568.00
2023-05-24T01:14:58.186Z,100554.00
2023-05-24T01:17:31.145Z,100570.00
2023-05-24T01:20:06.026Z,100561.00
2023-05-24T01:23:05.728Z,100557.00
2023-05-24T01:26:00.863Z,100562.00
2023-05-24T01:28:29.524Z,100563.00
2023-05-24T01:30:57.265Z,100575.00
2023-05-24T01:33:25.588Z,100566.00
2023-05-24T01:35:52.960Z,100566.00
2023-05-24T01:38:20.385Z,100565.00
2023-05-24T01:40:52.413Z,100566.00
2023-05-24T01:43:28.046Z,100582.00
2023-05-24T01:46:05.409Z,100582.00
2023-05-24T01:48:41.033Z,100589.00
2023-05-24T01:51:11.071Z,100578.00
2023-05-24T01:53:45.832Z,100586.00
2023-05-24T01:56:15.616Z,100575.00
2023-05-24T01:58:45.683Z,100580.00
2023-05-24T02:01:14.509Z,100586.00
2023-05-24T02:03:42.266Z,100579.00
2023-05-24T02:06:10.355Z,100580.00
2023-05-24T02:08:37.699Z,100579.00
2023-05-24T02:11:05.195Z,100582.00
2023-05-24T02:13:32.547Z,100576.00
2023-05-24T02:15:59.939Z,100586.00
2023-05-24T02:18:33.915Z,100580.00
2023-05-24T02:21:01.855Z,100575.00
2023-05-24T02:23:29.302Z,100581.00
2023-05-24T02:25:56.728Z,100575.00
2023-05-24T02:28:24.077Z,100574.00
2023-05-24T02:30:51.606Z,100564.00
2023-05-24T02:33:18.961Z,100567.00
2023-05-24T02:35:47.054Z,100565.00
2023-05-24T02:38:14.376Z,100566.00
2023-05-24T02:40:41.806Z,100559.00
2023-05-24T02:43:09.320Z,100566.00
2023-05-24T02:45:37.017Z,100558.00
2023-05-24T02:48:04.946Z,100561.00
2023-05-24T02:50:32.410Z,100567.00
2023-05-24T02:53:00.811Z,100570.00
2023-05-24T02:55:28.471Z,100556.00
2023-05-24T02:57:55.822Z,100564.00
2023-05-24T03:00:23.305Z,100556.00
2023-05-24T03:02:51.764Z,100554.00
2023-05-24T03:05:19.148Z,100561.00
2023-05-24T03:07:46.406Z,100560.00
2023-05-24T03:10:15.956Z,100556.00
2023-05-24T03:12:43.433Z,100559.00
2023-05-24T03:15:11.492Z,100555.00
2023-05-24T03:17:38.791Z,100568.00
2023-05-24T03:20:07.626Z,100562.00
2023-05-24T03:22:35.349Z,100565.00
2023-05-24T03:25:02.659Z,100569.00
2023-05-24T03:27:30.715Z,100563.00
2023-05-24T03:29:58.024Z,100563.00
2023-05-24T03:32:25.290Z,100565.00
2023-05-24T03:34:52.634Z,100564.00
2023-05-24T03:37:19.916Z,100577.00
2023-05-24T03:39:47.255Z,100567.00
2023-05-24T03:42:14.748Z,100581.00
2023-05-24T03:44:43.247Z,100586.00
2023-05-24T03:47:10.605Z,100576.00
2023-05-24T03:49:37.925Z,100578.00
2023-05-24T03:52:05.477Z,100579.00
2023-05-24T03:54:32.872Z,100587.00
2023-05-24T03:57:01.053Z,100597.00
2023-05-24T03:59:30.112Z,100592.00
2023-05-24T04:01:58.206Z,100602.00
2023-05-24T04:04:25.656Z,100600.00
2023-05-24T04:06:53.568Z,100593.00
2023-05-24T04:09:22.679Z,100599.00
2023-05-24T04:11:50.124Z,100606.00
2023-05-24T04:14:17.658Z,100606.00
2023-05-24T04:16:45.093Z,100615.00
2023-05-24T04:19:13.166Z,100608.00
2023-05-24T04:21:40.607Z,100608.00
2023-05-24T04:24:07.991Z,100605.00
2023-05-24T04:26:37.001Z,100615.00
2023-05-24T04:29:04.410Z,100618.00
2023-05-24T04:31:33.615Z,100615.00
2023-05-24T04:34:01.397Z,100621.00
2023-05-24T04:36:30.797Z,100621.00
2023-05-24T04:39:02.149Z,100632.00
2023-05-24T04:41:31.364Z,100627.00
2023-05-24T04:43:59.355Z,100629.00
2023-05-24T04:46:26.901Z,100630.00
2023-05-24T04:48:54.229Z,100632.00
2023-05-24T04:51:22.017Z,100631.00
2023-05-24T04:53:50.006Z,100632.00
2023-05-24T04:56:17.772Z,100630.00
2023-05-24T04:58:45.123Z,100647.00
2023-05-24T05:01:12.494Z,100644.00
2023-05-24T05:03:40.309Z,100656.00
2023-05-24T05:06:07.882Z,100655.00
2023-05-24T05:08:35.197Z,100658.00
2023-05-24T05:11:03.298Z,100657.00
2023-05-24T05:13:30.651Z,100661.00
2023-05-24T05:15:58.046Z,100661.00
2023-05-24T05:18:25.389Z,100666.00
2023-05-24T05:20:52.696Z,100669.00
2023-05-24T05:23:20.085Z,100668.00
2023-05-24T05:25:47.450Z,100664.00
2023-05-24T05:28:15.474Z,100661.00
2023-05-24T05:30:43.034Z,100663.00
2023-05-24T05:33:10.771Z,100667.00
2023-05-24T05:35:38.197Z,100662.00
2023-05-24T05:38:05.522Z,100670.00
2023-05-24T05:40:32.886Z,100662.00
2023-05-24T05:43:00.422Z,100669.00
2023-05-24T05:45:28.571Z,100680.00
2023-05-24T05:47:55.937Z,100675.00
2023-05-24T05:50:23.246Z,100668.00
2023-05-24T05:52:50.708Z,100674.00
2023-05-24T05:55:18.253Z,100673.00
2023-05-24T05:57:45.646Z,100680.00
2023-05-24T06:00:13.807Z,100684.00
2023-05-24T06:02:41.891Z,100680.00
2023-05-24T06:05:09.753Z,100686.00
2023-05-24T06:07:38.017Z,100691.00
2023-05-24T06:10:06.028Z,100692.00
2023-05-24T06:12:33.370Z,100695.00
2023-05-24T06:15:00.706Z,100695.00
2023-05-24T06:17:28.465Z,100695.00
2023-05-24T06:19:56.463Z,100704.00
2023-05-24T06:22:23.835Z,100698.00
2023-05-24T06:24:51.697Z,100701.00
2023-05-24T06:27:19.026Z,100710.00
2023-05-24T06:29:46.389Z,100697.00
2023-05-24T06:32:13.790Z,100701.00
2023-05-24T06:34:42.502Z,100700.00
2023-05-24T06:37:14.514Z,100702.00
2023-05-24T06:39:42.078Z,100704.00
2023-05-24T06:42:09.481Z,100706.00
2023-05-24T06:44:36.830Z,100712.00
2023-05-24T06:47:05.162Z,100714.00
2023-05-24T06:49:32.974Z,100725.00
2023-05-24T06:52:00.250Z,100726.00
2023-05-24T06:54:28.359Z,100722.00
2023-05-24T06:56:55.754Z,100730.00
2023-05-24T06:59:23.492Z,100733.00
2023-05-24T07:01:53.186Z,100729.00
2023-05-24T07:04:20.726Z,100725.00
2023-05-24T07:06:48.099Z,100742.00
2023-05-24T07:09:15.433Z,100742.00
2023-05-24T07:11:43.535Z,100738.00
2023-05-24T07:14:11.002Z,100745.00
2023-05-24T07:16:38.463Z,100739.00
2023-05-24T07:19:06.718Z,100744.00
2023-05-24T07:21:34.039Z,100745.00
2023-05-24T07:24:03.263Z,100739.00
2023-05-24T07:26:31.019Z,100753.00
2023-05-24T07:28:59.005Z,100757.00
2023-05-24T07:31:26.965Z,100749.00
2023-05-24T07:33:54.304Z,100759.00
2023-05-24T07:36:21.611Z,100754.00
2023-05-24T07:38:48.934Z,100745.00
2023-05-24T07:41:16.388Z,100748.00
2023-05-24T07:43:43.700Z,100756.00
2023-05-24T07:46:11.779Z,100745.00
2023-05-24T07:48:39.150Z,100753.00
2023-05-24T07:51:06.920Z,100753.00
2023-05-24T07:53:34.773Z,100746.00
2023-05-24T07:56:02.151Z,100750.00
2023-05-24T07:58:29.496Z,100757.00
2023-05-24T08:00:56.863Z,100762.00
2023-05-24T08:03:25.230Z,100758.00
2023-05-24T08:05:52.804Z,100750.00
2023-05-24T08:08:20.246Z,100762.00
2023-05-24T08:10:47.533Z,100774.00
2023-05-24T08:13:15.187Z,100765.00
2023-05-24T08:15:42.830Z,100762.00
2023-05-24T08:18:10.393Z,100774.00
2023-05-24T08:20:38.682Z,100764.00
2023-05-24T08:23:06.311Z,100775.00
2023-05-24T08:25:33.667Z,100765.00
2023-05-24T08:28:01.367Z,100774.00
2023-05-24T08:30:28.715Z,100762.00
2023-05-24T08:32:57.446Z,100763.00
2023-05-24T08:35:25.009Z,100762.00
2023-05-24T08:37:53.438Z,100765.00
2023-05-24T08:40:23.326Z,100768.00
2023-05-24T08:42:52.515Z,100766.00
2023-05-24T08:45:22.438Z,100776.00
2023-05-24T08:47:51.496Z,100774.00
2023-05-24T08:50:20.031Z,100778.00
2023-05-24T08:52:47.627Z,100782.00
2023-05-24T08:55:16.387Z,100776.00
2023-05-24T08:57:45.218Z,100772.00
2023-05-24T09:00:14.625Z,100788.00
2023-05-24T09:02:43.744Z,100779.00
2023-05-24T09:05:13.752Z,100774.00
2023-05-24T09:07:42.868Z,100778.00
2023-05-24T09:10:11.373Z,100789.00
2023-05-24T09:12:42.510Z,100791.00
2023-05-24T09:15:10.294Z,100788.00
2023-05-24T09:17:38.601Z,100786.00
2023-05-24T09:20:10.883Z,100791.00
2023-05-24T09:22:42.248Z,100790.00
2023-05-24T09:25:13.561Z,100785.00
2023-05-24T09:27:45.063Z,100789.00
2023-05-24T09:30:18.812Z,100781.00
2023-05-24T09:32:56.474Z,100787.00
2023-05-24T09:35:26.174Z,100788.00
2023-05-24T09:37:56.665Z,100777.00
2023-05-24T09:40:24.307Z,100771.00
2023-05-24T09:43:05.213Z,100786.00
2023-05-24T09:45:32.671Z,100779.00
2023-05-24T09:48:00.505Z,100778.00
2023-05-24T09:50:28.414Z,100790.00
2023-05-24T09:52:57.044Z,100788.00
2023-05-24T09:55:28.977Z,100792.00
2023-05-24T09:58:05.136Z,100792.00
2023-05-24T10:00:36.141Z,100788.00
2023-05-24T10:03:07.724Z,100789.00
2023-05-24T10:05:36.489Z,100786.00
2023-05-24T10:08:07.702Z,100779.00
2023-05-24T10:10:35.877Z,100791.00
2023-05-24T10:13:04.461Z,100797.00
2023-05-24T10:15:31.835Z,100795.00
2023-05-24T10:18:01.098Z,100787.00
2023-05-24T10:20:29.224Z,100783.00
2023-05-24T10:23:03.504Z,100776.00
2023-05-24T10:25:34.627Z,100782.00
2023-05-24T10:28:07.524Z,100797.00
2023-05-24T10:30:43.395Z,100787.00
2023-05-24T10:33:14.227Z,100788.00
2023-05-24T10:35:43.398Z,100783.00
2023-05-24T10:38:11.159Z,100796.00
2023-05-24T10:40:43.024Z,100792.00
2023-05-24T10:43:11.757Z,100799.00
2023-05-24T10:45:41.534Z,100798.00
2023-05-24T10:48:24.238Z,100797.00
2023-05-24T10:50:52.420Z,100811.00
2023-05-24T10:53:23.797Z,100820.00
2023-05-24T10:55:56.735Z,100820.00
2023-05-24T10:58:44.203Z,100816.00
2023-05-24T11:01:15.398Z,100823.00
2023-05-24T11:03:44.019Z,100823.00
2023-05-24T11:06:11.772Z,100824.00
2023-05-24T11:08:43.839Z,100826.00
2023-05-24T11:13:45.964Z,100824.00
2023-05-24T11:16:33.710Z,100824.00
2023-05-24T11:19:16.449Z,100818.00
2023-05-24T11:21:46.743Z,100817.00
2023-05-24T11:24:16.311Z,100822.00
2023-05-24T11:26:44.915Z,100814.00
2023-05-24T11:29:17.141Z,100815.00
2023-05-24T11:31:51.783Z,100817.00
2023-05-24T11:34:20.077Z,100815.00
2023-05-24T11:36:48.537Z,100804.00
2023-05-24T11:39:16.801Z,100800.00
2023-05-24T11:41:44.696Z,100798.00
2023-05-24T11:44:16.864Z,100797.00
2023-05-24T11:46:44.432Z,100802.00
2023-05-24T11:49:16.923Z,100799.00
2023-05-24T11:51:44.510Z,100806.00
2023-05-24T11:54:12.503Z,100810.00
2023-05-24T11:56:40.437Z,100813.00
2023-05-24T11:59:14.699Z,100806.00
2023-05-24T12:01:43.433Z,100808.00
2023-05-24T12:04:12.488Z,100798.00
2023-05-24T12:06:44.123Z,100814.00
2023-05-24T12:09:13.212Z,100816.00
2023-05-24T12:11:41.536Z,100803.00
2023-05-24T12:14:18.767Z,100804.00
2023-05-24T12:16:47.478Z,100797.00
2023-05-24T12:19:31.826Z,100795.00
2023-05-24T12:22:05.504Z,100802.00
2023-05-24T12:24:33.693Z,100814.00
2023-05-24T12:27:05.997Z,100803.00
2023-05-24T12:29:35.113Z,100796.00
2023-05-24T12:32:03.762Z,100800.00
2023-05-24T12:34:31.922Z,100806.00
2023-05-24T12:37:00.530Z,100796.00
2023-05-24T12:39:30.859Z,100798.00
2023-05-24T12:42:00.866Z,100798.00
2023-05-24T12:44:29.888Z,100795.00
2023-05-24T12:46:58.597Z,100794.00
2023-05-24T12:49:27.168Z,100789.00
2023-05-24T12:51:56.369Z,100792.00
2023-05-24T12:54:25.076Z,100792.00
2023-05-24T12:56:55.640Z,100798.00
2023-05-24T12:59:26.928Z,100801.00
2023-05-24T13:01:54.620Z,100810.00
2023-05-24T13:04:26.682Z,100797.00
2023-05-24T13:06:54.928Z,100792.00
2023-05-24T13:09:22.621Z,100796.00
2023-05-24T13:11:50.530Z,100793.00
2023-05-24T13:14:19.202Z,100796.00
2023-05-24T13:16:46.773Z,100785.00
2023-05-24T13:19:21.359Z,100791.00
2023-05-24T13:21:48.994Z,100796.00
2023-05-24T13:24:17.318Z,100782.00
2023-05-24T13:26:45.572Z,100793.00
2023-05-24T13:31:44.416Z,100780.00
2023-05-24T13:34:12.314Z,100771.00
2023-05-24T13:36:40.080Z,100777.00
2023-05-24T13:39:16.204Z,100766.00
2023-05-24T13:41:45.667Z,100769.00
2023-05-24T13:44:13.472Z,100774.00
2023-05-24T13:46:41.450Z,100775.00
2023-05-24T13:49:10.228Z,100767.00
2023-05-24T13:51:38.766Z,100776.00
2023-05-24T13:54:07.278Z,100775.00
2023-05-24T13:56:35.013Z,100772.00
2023-05-24T13:59:04.717Z,100771.00
2023-05-24T14:01:32.929Z,100773.00
2023-05-24T14:04:01.087Z,100776.00
2023-05-24T14:06:28.555Z,100774.00
2023-05-24T14:08:56.155Z,100766.00
2023-05-24T14:11:24.477Z,100783.00
2023-05-24T14:16:23.984Z,100772.00
2023-05-24T14:18:51.614Z,100775.00
2023-05-24T14:21:20.962Z,100768.00
2023-05-24T14:23:49.500Z,100776.00
2023-05-24T14:26:18.730Z,100776.00
2023-05-24T14:28:46.333Z,100770.00
2023-05-24T14:31:13.864Z,100766.00
2023-05-24T14:33:44.300Z,100765.00
2023-05-24T14:36:11.680Z,100764.00
2023-05-24T14:38:38.986Z,100765.00
2023-05-24T14:41:06.427Z,100768.00
2023-05-24T14:43:33.914Z,100772.00
2023-05-24T14:46:01.286Z,100765.00
2023-05-24T14:48:28.685Z,100774.00
2023-05-24T14:50:56.841Z,100764.00
2023-05-24T14:53:24.178Z,100766.00
2023-05-24T14:55:53.614Z,100768.00
2023-05-24T14:58:21.282Z,100755.00
2023-05-24T15:00:48.728Z,100767.00
2023-05-24T15:03:16.399Z,100771.00
2023-05-24T15:05:43.859Z,100772.00
2023-05-24T15:08:12.128Z,100769.00
2023-05-24T15:10:39.897Z,100769.00
2023-05-24T15:13:07.481Z,100787.00
2023-05-24T15:15:35.192Z,100763.00
2023-05-24T15:18:02.580Z,100769.00
2023-05-24T15:20:30.342Z,100764.00
2023-05-24T15:22:57.699Z,100772.00
2023-05-24T15:25:25.682Z,100767.00
2023-05-24T15:27:53.016Z,100771.00
2023-05-24T15:30:22.128Z,100772.00
2023-05-24T15:32:49.446Z,100779.00
2023-05-24T15:35:17.650Z,100766.00
2023-05-24T15:37:45.426Z,100768.00
2023-05-24T15:40:14.414Z,100771.00
2023-05-24T15:42:42.555Z,100771.00
2023-05-24T15:45:11.216Z,100774.00
2023-05-24T15:47:39.920Z,100770.00
2023-05-24T15:50:08.782Z,100763.00
2023-05-24T15:52:36.491Z,100765.00
2023-05-24T15:55:04.234Z,100771.00
2023-05-24T15:57:31.715Z,100774.00
2023-05-24T16:00:00.569Z,100771.00
2023-05-24T16:02:29.175Z,100777.00
2023-05-24T16:04:57.004Z,100772.00
2023-05-24T16:07:24.445Z,100782.00
2023-05-24T16:09:51.778Z,100766.00
2023-05-24T16:12:19.428Z,100780.00
2023-05-24T16:14:46.896Z,100775.00
2023-05-24T16:17:15.060Z,100785.00
2023-05-24T16:19:42.571Z,100778.00
2023-05-24T16:22:10.064Z,100765.00
2023-05-24T16:24:37.429Z,100770.00
2023-05-24T16:27:06.190Z,100769.00
2023-05-24T16:29:33.965Z,100762.00
2023-05-24T16:32:01.431Z,100773.00
2023-05-24T16:34:29.515Z,100772.00
2023-05-24T16:36:57.101Z,100767.00
2023-05-24T16:39:25.143Z,100772.00
2023-05-24T16:41:52.464Z,100775.00
2023-05-24T16:44:19.773Z,100772.00
2023-05-24T16:46:47.412Z,100773.00
2023-05-24T16:49:14.844Z,100776.00
2023-05-24T16:51:42.865Z,100780.00
2023-05-24T16:54:10.217Z,100775.00
2023-05-24T16:56:38.184Z,100774.00
2023-05-24T16:59:05.726Z,100770.00
2023-05-24T17:01:33.242Z,100779.00
2023-05-24T17:04:00.774Z,100781.00
2023-05-24T17:06:28.190Z,100779.00
2023-05-24T17:08:56.233Z,100785.00
2023-05-24T17:11:23.554Z,100780.00
2023-05-24T17:13:51.145Z,100784.00
2023-05-24T17:16:18.821Z,100782.00
2023-05-24T17:18:46.274Z,100782.00
2023-05-24T17:21:13.733Z,100784.00
2023-05-24T17:23:41.255Z,100789.00
2023-05-24T17:26:09.411Z,100782.00
2023-05-24T17:28:36.812Z,100782.00
2023-05-24T17:31:04.321Z,100788.00
2023-05-24T17:33:31.767Z,100792.00
2023-05-24T17:36:01.985Z,100792.00
2023-05-24T17:38:32.184Z,100797.00
2023-05-24T17:40:59.961Z,100806.00
2023-05-24T17:43:28.628Z,100797.00
2023-05-24T17:46:02.280Z,100810.00
2023-05-24T17:48:30.746Z,100805.00
2023-05-24T17:51:00.148Z,100806.00
2023-05-24T17:53:31.848Z,100807.00
2023-05-24T17:56:00.276Z,100818.00
2023-05-24T17:58:30.068Z,100819.00
2023-05-24T18:00:57.393Z,100809.00
2023-05-24T18:03:24.689Z,100816.00
2023-05-24T18:05:51.992Z,100819.00
2023-05-24T18:08:19.398Z,100814.00
2023-05-24T18:10:46.748Z,100810.00
2023-05-24T18:13:14.091Z,100818.00
2023-05-24T18:15:43.211Z,100821.00
2023-05-24T18:18:10.749Z,100811.00
2023-05-24T18:20:38.146Z,100812.00
2023-05-24T18:23:05.607Z,100815.00
2023-05-24T18:25:32.898Z,100823.00
2023-05-24T18:28:00.374Z,100827.00
2023-05-24T18:30:27.720Z,100821.00
2023-05-24T18:35:31.400Z,100831.00
2023-05-24T18:37:58.924Z,100825.00
2023-05-24T18:40:26.449Z,100821.00
2023-05-24T18:42:53.801Z,100829.00
2023-05-24T18:45:21.152Z,100828.00
2023-05-24T18:47:48.652Z,100837.00
2023-05-24T18:50:23.060Z,100834.00
2023-05-24T18:52:50.891Z,100830.00
2023-05-24T18:55:18.363Z,100847.00
2023-05-24T18:57:45.720Z,100856.00
2023-05-24T19:00:13.839Z,100857.00
2023-05-24T19:02:41.329Z,100849.00
2023-05-24T19:05:09.410Z,100851.00
2023-05-24T19:07:37.544Z,100848.00
2023-05-24T19:10:05.851Z,100848.00
2023-05-24T19:12:33.298Z,100843.00
2023-05-24T19:15:02.046Z,100849.00
2023-05-24T19:17:29.419Z,100847.00
2023-05-24T19:19:56.738Z,100845.00
2023-05-24T19:22:25.552Z,100845.00
2023-05-24T19:24:53.566Z,100838.00
2023-05-24T19:27:20.929Z,100855.00
2023-05-24T19:29:48.476Z,100860.00
2023-05-24T19:32:16.634Z,100863.00
2023-05-24T19:34:44.429Z,100865.00
2023-05-24T19:37:11.814Z,100862.00
2023-05-24T19:39:39.141Z,100861.00
2023-05-24T19:42:07.402Z,100854.00
2023-05-24T19:44:34.834Z,100866.00
2023-05-24T19:47:02.227Z,100875.00
2023-05-24T19:49:29.568Z,100882.00
2023-05-24T19:51:56.906Z,100882.00
2023-05-24T19:54:24.275Z,100885.00
2023-05-24T19:56:51.942Z,100889.00
2023-05-24T19:59:20.149Z,100897.00
2023-05-24T20:01:47.462Z,100894.00
2023-05-24T20:04:15.101Z,100887.00
2023-05-24T20:06:42.665Z,100895.00
2023-05-24T20:09:10.001Z,100894.00
2023-05-24T20:11:37.492Z,100887.00
2023-05-24T20:14:04.817Z,100892.00
2023-05-24T20:16:32.919Z,100908.00
2023-05-24T20:19:00.290Z,100914.00
2023-05-24T20:21:27.787Z,100904.00
2023-05-24T20:23:57.721Z,100910.00
2023-05-24T20:26:26.314Z,100916.00
2023-05-24T20:28:53.734Z,100907.00
2023-05-24T20:31:21.129Z,100898.00
2023-05-24T20:33:50.782Z,100908.00
2023-05-24T20:36:18.199Z,100907.00
2023-05-24T20:38:45.691Z,100907.00
2023-05-24T20:41:13.385Z,100908.00
2023-05-24T20:43:41.035Z,100920.00
2023-05-24T20:46:08.426Z,100915.00
2023-05-24T20:48:35.883Z,100919.00
2023-05-24T20:51:04.174Z,100916.00
2023-05-24T20:53:31.565Z,100921.00
2023-05-24T20:55:58.942Z,100932.00
2023-05-24T20:58:26.436Z,100925.00
2023-05-24T21:00:54.663Z,100920.00
2023-05-24T21:03:22.355Z,100927.00
2023-05-24T21:05:49.985Z,100930.00
2023-05-24T21:08:20.044Z,100928.00
2023-05-24T21:10:47.483Z,100928.00
2023-05-24T21:13:17.408Z,100939.00
2023-05-24T21:15:45.640Z,100933.00
2023-05-24T21:18:13.422Z,100947.00
2023-05-24T21:20:43.863Z,100934.00
2023-05-24T21:23:11.307Z,100942.00
2023-05-24T21:25:39.528Z,100937.00
2023-05-24T21:28:06.945Z,100942.00
2023-05-24T21:30:34.337Z,100954.00
2023-05-24T21:33:01.841Z,100952.00
2023-05-24T21:35:29.163Z,100944.00
2023-05-24T21:37:56.492Z,100946.00
2023-05-24T21:40:23.854Z,100954.00
2023-05-24T21:42:52.007Z,100954.00
2023-05-24T21:45:19.427Z,100951.00
2023-05-24T21:47:46.766Z,100948.00
2023-05-24T21:50:14.158Z,100953.00
2023-05-24T21:52:41.489Z,100953.00
2023-05-24T21:55:09.454Z,100946.00
2023-05-24T21:57:36.799Z,100945.00
2023-05-24T22:00:05.615Z,100949.00
2023-05-24T22:02:33.028Z,100954.00
2023-05-24T22:05:00.545Z,100956.00
2023-05-24T22:07:27.953Z,100959.00
2023-05-24T22:09:55.492Z,100964.00
2023-05-24T22:12:22.878Z,100954.00
2023-05-24T22:14:50.283Z,100966.00
2023-05-24T22:17:18.601Z,100968.00
2023-05-24T22:19:47.324Z,100950.00
2023-05-24T22:22:18.847Z,100961.00
2023-05-24T22:24:46.847Z,100976.00
2023-05-24T22:27:16.226Z,100970.00
2023-05-24T22:29:43.690Z,100970.00
2023-05-24T22:32:11.203Z,100965.00
2023-05-24T22:34:39.517Z,100967.00
2023-05-24T22:37:07.255Z,100971.00
2023-05-24T22:39:34.741Z,100971.00
2023-05-24T22:42:02.181Z,100967.00
2023-05-24T22:44:29.503Z,100977.00
2023-05-24T22:46:56.903Z,100975.00
2023-05-24T22:49:24.293Z,100973.00
2023-05-24T22:51:53.635Z,100979.00
2023-05-24T22:54:21.056Z,100976.00
2023-05-24T22:56:48.383Z,100971.00
2023-05-24T22:59:15.702Z,100974.00
2023-05-24T23:01:44.019Z,100979.00
2023-05-24T23:04:21.247Z,100973.00
2023-05-24T23:06:51.635Z,100972.00
2023-05-24T23:09:33.182Z,100972.00
2023-05-24T23:12:01.701Z,100968.00
2023-05-24T23:14:29.997Z,100981.00
2023-05-24T23:17:01.718Z,100982.00
2023-05-24T23:19:30.111Z,100974.00
2023-05-24T23:21:57.674Z,100978.00
2023-05-24T23:24:26.249Z,100979.00
2023-05-24T23:26:55.133Z,100971.00
2023-05-24T23:29:22.596Z,100973.00
2023-05-24T23:31:50.188Z,100981.00
2023-05-24T23:34:17.664Z,100976.00
2023-05-24T23:36:45.239Z,100980.00
2023-05-24T23:39:12.625Z,100983.00
2023-05-24T23:41:40.918Z,100985.00
2023-05-24T23:44:08.356Z,100986.00
2023-05-24T23:46:35.976Z,100987.00
2023-05-24T23:49:03.693Z,100987.00
2023-05-24T23:51:33.919Z,100987.00
2023-05-24T23:54:01.858Z,100990.00
2023-05-24T23:56:29.321Z,100984.00
2023-05-24T23:58:57.635Z,100986.00
